createdAt,value
2023-04-18T00:25:17.813Z,10.97
2023-04-18T00:30:21.159Z,11.65
2023-04-18T00:35:26.159Z,11.90
2023-04-18T00:40:30.508Z,11.13
2023-04-18T00:45:33.088Z,11.95
2023-04-18T00:50:37.521Z,12.07
2023-04-18T00:55:41.793Z,10.55
2023-04-18T01:00:44.586Z,9.73
2023-04-18T01:05:48.318Z,10.83
2023-04-18T01:10:52.411Z,10.50
2023-04-18T01:15:55.034Z,9.10
2023-04-18T01:20:57.713Z,10.60
2023-04-18T01:26:01.512Z,10.55
2023-04-18T01:31:04.140Z,12.53
2023-04-18T01:36:07.141Z,11.93
2023-04-18T01:41:10.910Z,12.47
2023-04-18T01:46:13.418Z,12.93
2023-04-18T01:51:16.032Z,11.48
2023-04-18T01:56:22.801Z,11.27
2023-04-18T02:01:25.740Z,10.85
2023-04-18T02:06:31.146Z,9.97
2023-04-18T02:11:36.864Z,8.93
2023-04-18T02:16:39.506Z,10.38
2023-04-18T02:21:45.067Z,11.60
2023-04-18T02:26:48.931Z,12.75
2023-04-18T02:31:54.127Z,13.47
2023-04-18T02:36:59.323Z,11.18
2023-04-18T02:42:03.301Z,10.48
2023-04-18T02:47:08.430Z,12.93
2023-04-18T02:52:14.862Z,14.85
2023-04-18T02:57:18.760Z,15.23
2023-04-18T03:02:44.714Z,12.90
2023-04-18T03:08:00.166Z,13.23
2023-04-18T03:13:05.121Z,14.53
2023-04-18T03:18:08.638Z,14.07
2023-04-18T03:23:14.700Z,18.27
2023-04-18T03:28:18.740Z,14.30
2023-04-18T03:33:21.320Z,12.65
2023-04-18T03:38:28.002Z,11.17
2023-04-18T03:43:31.910Z,12.25
2023-04-18T03:48:34.433Z,11.27
2023-04-18T03:53:40.628Z,12.00
2023-04-18T03:58:44.678Z,12.48
2023-04-18T04:03:47.787Z,14.43
2023-04-18T04:08:50.641Z,14.18
2023-04-18T04:13:58.880Z,15.03
2023-04-18T04:19:07.470Z,12.55
2023-04-18T04:24:16.798Z,12.10
2023-04-18T04:29:23.878Z,13.43
2023-04-18T04:34:27.334Z,13.18
2023-04-18T04:39:32.948Z,13.67
2023-04-18T04:44:57.014Z,12.52
2023-04-18T04:50:00.119Z,14.05
2023-04-18T04:55:02.761Z,12.33
2023-04-18T05:00:09.533Z,15.68
2023-04-18T05:05:12.290Z,34.47
2023-04-18T05:10:14.857Z,20.25
2023-04-18T05:15:20.678Z,16.27
2023-04-18T05:20:23.619Z,12.80
2023-04-18T05:25:26.166Z,13.45
2023-04-18T05:30:30.056Z,12.97
2023-04-18T05:35:32.676Z,13.55
2023-04-18T05:40:35.145Z,12.73
2023-04-18T05:45:39.201Z,12.27
2023-04-18T05:50:42.847Z,15.60
2023-04-18T05:55:48.707Z,13.83
2023-04-18T06:00:53.364Z,12.90
2023-04-18T06:05:56.130Z,11.60
2023-04-18T06:10:58.988Z,11.00
2023-04-18T06:16:03.612Z,11.73
2023-04-18T06:21:06.466Z,12.80
2023-04-18T06:26:09.301Z,10.23
2023-04-18T06:31:13.217Z,11.75
2023-04-18T06:36:16.105Z,13.77
2023-04-18T06:41:19.904Z,13.45
2023-04-18T06:46:24.116Z,23.73
2023-04-18T06:51:30.998Z,17.03
2023-04-18T06:56:36.532Z,14.70
2023-04-18T07:01:41.816Z,18.13
2023-04-18T07:06:45.543Z,14.67
2023-04-18T07:11:48.348Z,18.35
2023-04-18T07:16:52.644Z,18.77
2023-04-18T07:21:55.628Z,12.23
2023-04-18T07:26:58.215Z,12.75
2023-04-18T07:32:03.044Z,10.20
2023-04-18T07:37:08.375Z,16.48
2023-04-18T07:42:12.770Z,15.95
2023-04-18T07:47:17.186Z,19.33
2023-04-18T07:52:20.125Z,16.25
2023-04-18T07:57:22.705Z,12.23
2023-04-18T08:02:29.062Z,10.90
2023-04-18T08:07:32.405Z,13.35
2023-04-18T08:12:34.961Z,11.63
2023-04-18T08:17:39.387Z,10.37
2023-04-18T08:22:57.674Z,11.77
2023-04-18T08:28:06.058Z,12.40
2023-04-18T08:33:10.234Z,13.07
2023-04-18T08:38:19.754Z,8.98
2023-04-18T08:43:22.922Z,10.23
2023-04-18T08:48:27.656Z,8.63
2023-04-18T08:53:34.197Z,9.05
2023-04-18T08:58:37.782Z,18.08
2023-04-18T09:03:43.037Z,9.97
2023-04-18T09:08:57.986Z,10.85
2023-04-18T09:14:01.032Z,11.50
2023-04-18T09:19:14.612Z,9.30
2023-04-18T09:24:22.836Z,8.75
2023-04-18T09:29:47.499Z,13.75
2023-04-18T09:34:56.703Z,11.90
2023-04-18T09:39:59.677Z,14.57
2023-04-18T09:45:07.820Z,14.80
2023-04-18T09:50:14.900Z,13.97
2023-04-18T09:55:19.474Z,12.98
2023-04-18T10:00:26.364Z,14.50
2023-04-18T10:05:39.846Z,11.97
2023-04-18T10:10:45.023Z,12.20
2023-04-18T10:15:47.997Z,13.07
2023-04-18T10:21:02.220Z,11.53
2023-04-18T10:26:06.660Z,12.47
2023-04-18T10:31:09.348Z,13.77
2023-04-18T10:36:18.819Z,12.38
2023-04-18T10:41:27.346Z,11.40
2023-04-18T10:46:32.851Z,12.70
2023-04-18T10:51:37.046Z,12.68
2023-04-18T10:56:39.752Z,12.63
2023-04-18T11:01:49.144Z,12.05
2023-04-18T11:06:55.358Z,12.70
2023-04-18T11:12:07.077Z,13.53
2023-04-18T11:17:21.010Z,15.83
2023-04-18T11:22:25.201Z,15.55
2023-04-18T11:27:48.646Z,12.18
2023-04-18T11:32:52.472Z,14.10
2023-04-18T11:38:01.210Z,11.68
2023-04-18T11:43:06.566Z,15.95
2023-04-18T11:48:10.016Z,14.13
2023-04-18T11:53:14.662Z,12.10
2023-04-18T11:58:17.411Z,11.13
2023-04-18T12:03:22.264Z,11.17
2023-04-18T12:08:27.485Z,11.73
2023-04-18T12:13:33.022Z,11.88
2023-04-18T12:18:38.332Z,12.52
2023-04-18T12:23:44.810Z,13.17
2023-04-18T12:28:51.422Z,11.40
2023-04-18T12:33:54.066Z,11.07
2023-04-18T12:38:59.079Z,11.70
2023-04-18T12:44:06.229Z,11.93
2023-04-18T12:49:09.131Z,12.57
2023-04-18T12:54:17.235Z,11.87
2023-04-18T12:59:20.754Z,13.10
2023-04-18T13:04:23.871Z,12.30
2023-04-18T13:09:30.854Z,10.80
2023-04-18T13:14:33.390Z,10.47
2023-04-18T13:19:35.897Z,10.30
2023-04-18T13:24:39.866Z,10.95
2023-04-18T13:29:46.111Z,9.77
2023-04-18T13:34:49.170Z,10.98
2023-04-18T13:39:53.142Z,11.68
2023-04-18T13:45:00.812Z,12.00
2023-04-18T13:50:03.408Z,10.10
2023-04-18T13:55:09.170Z,11.18
2023-04-18T14:00:13.180Z,11.73
2023-04-18T14:05:15.771Z,12.20
2023-04-18T14:10:19.608Z,12.02
2023-04-18T14:15:24.476Z,11.70
2023-04-18T14:20:27.382Z,10.53
2023-04-18T14:25:31.359Z,11.80
2023-04-18T14:30:34.033Z,10.65
2023-04-18T14:35:36.687Z,10.23
2023-04-18T14:40:40.778Z,10.77
2023-04-18T14:45:43.295Z,12.82
2023-04-18T14:50:45.862Z,13.90
2023-04-18T14:55:50.046Z,11.80
2023-04-18T15:00:52.621Z,11.63
2023-04-18T15:05:56.005Z,12.25
2023-04-18T15:10:59.742Z,11.17
2023-04-18T15:16:02.259Z,11.57
2023-04-18T15:21:04.783Z,11.60
2023-04-18T15:26:14.743Z,10.27
2023-04-18T15:31:17.230Z,9.85
2023-04-18T15:36:19.683Z,9.43
2023-04-18T15:41:23.626Z,9.87
2023-04-18T15:46:26.133Z,9.98
2023-04-18T15:51:28.809Z,9.85
2023-04-18T15:56:33.614Z,8.70
2023-04-18T16:01:36.433Z,9.60
2023-04-18T16:06:38.860Z,8.68
2023-04-18T16:11:42.685Z,9.20
2023-04-18T16:16:48.195Z,8.82
2023-04-18T16:21:50.692Z,8.52
2023-04-18T16:26:57.675Z,11.20
2023-04-18T16:32:00.072Z,10.50
2023-04-18T16:37:02.609Z,9.13
2023-04-18T16:42:06.645Z,8.30
2023-04-18T16:47:09.111Z,10.13
2023-04-18T16:52:14.547Z,10.20
2023-04-18T16:57:18.544Z,10.13
2023-04-18T17:02:21.144Z,9.13
2023-04-18T17:07:23.649Z,8.43
2023-04-18T17:12:27.554Z,8.27
2023-04-18T17:17:32.823Z,9.38
2023-04-18T17:22:35.465Z,9.70
2023-04-18T17:27:40.060Z,16.80
2023-04-18T17:32:42.545Z,11.13
2023-04-18T17:37:46.352Z,9.87
2023-04-18T17:42:53.151Z,9.65
2023-04-18T17:47:57.710Z,7.38
2023-04-18T17:53:00.132Z,7.80
2023-04-18T17:58:03.918Z,9.90
2023-04-18T18:03:06.514Z,8.05
2023-04-18T18:08:09.053Z,17.47
2023-04-18T18:13:13.008Z,14.27
2023-04-18T18:18:15.422Z,8.27
2023-04-18T18:23:17.952Z,17.42
2023-04-18T18:28:22.048Z,10.68
2023-04-18T18:33:24.585Z,7.30
2023-04-18T18:38:27.143Z,8.27
2023-04-18T18:43:30.937Z,7.30
2023-04-18T18:48:33.340Z,22.10
2023-04-18T18:53:36.815Z,20.33
2023-04-18T18:58:42.158Z,7.03
2023-04-18T19:03:44.587Z,5.93
2023-04-18T19:08:47.165Z,6.17
2023-04-18T19:13:52.935Z,6.07
2023-04-18T19:18:55.357Z,11.88
2023-04-18T19:24:00.820Z,8.07
2023-04-18T19:29:06.344Z,9.70
2023-04-18T19:34:08.782Z,5.30
2023-04-18T19:39:11.166Z,5.78
2023-04-18T19:44:15.047Z,5.30
2023-04-18T19:49:17.624Z,12.97
2023-04-18T19:54:21.710Z,5.88
2023-04-18T19:59:25.820Z,6.83
2023-04-18T20:04:31.000Z,6.82
2023-04-18T20:09:35.078Z,5.07
2023-04-18T20:14:41.685Z,4.63
2023-04-18T20:19:49.823Z,4.65
2023-04-18T20:24:52.536Z,5.20
2023-04-18T20:29:57.337Z,4.72
2023-04-18T20:35:00.105Z,5.05
2023-04-18T20:40:02.611Z,4.73
2023-04-18T20:45:08.164Z,5.00
2023-04-18T20:50:11.249Z,4.97
2023-04-18T20:55:15.206Z,5.20
2023-04-18T21:00:22.939Z,3.83
2023-04-18T21:05:25.364Z,4.30
2023-04-18T21:10:27.747Z,4.25
2023-04-18T21:15:31.580Z,4.90
2023-04-18T21:20:34.017Z,4.30
2023-04-18T21:25:40.886Z,4.40
2023-04-18T21:30:44.777Z,5.90
2023-04-18T21:35:47.267Z,3.25
2023-04-18T21:40:49.811Z,3.40
2023-04-18T21:45:53.692Z,2.80
2023-04-18T21:50:56.364Z,4.57
2023-04-18T21:55:58.843Z,3.43
2023-04-18T22:01:06.072Z,3.90
2023-04-18T22:06:11.610Z,4.67
2023-04-18T22:11:14.159Z,3.50
2023-04-18T22:16:18.115Z,4.55
2023-04-18T22:21:20.675Z,3.50
2023-04-18T22:26:23.178Z,4.13
2023-04-18T22:31:27.119Z,3.77
2023-04-18T22:36:29.598Z,3.30
2023-04-18T22:41:31.982Z,4.00
2023-04-18T22:46:39.013Z,4.27
2023-04-18T22:51:41.479Z,4.68
2023-04-18T22:56:43.979Z,4.50
2023-04-18T23:01:47.839Z,4.20
2023-04-18T23:06:53.192Z,4.45
2023-04-18T23:11:55.616Z,4.63
2023-04-18T23:16:59.360Z,5.10
2023-04-18T23:22:01.782Z,4.30
2023-04-18T23:27:04.488Z,4.72
2023-04-18T23:32:08.362Z,4.63
2023-04-18T23:37:10.751Z,5.20
2023-04-18T23:42:13.140Z,4.75
2023-04-18T23:47:17.152Z,3.43
2023-04-18T23:52:19.693Z,4.75
2023-04-18T23:57:22.118Z,5.07
